createdAt,value
2022-09-18T00:01:24.948Z,92.40
2022-09-18T00:03:54.815Z,92.50
2022-09-18T00:06:24.596Z,92.60
2022-09-18T00:08:54.343Z,92.60
2022-09-18T00:11:24.368Z,92.60
2022-09-18T00:13:51.782Z,92.60
2022-09-18T00:16:21.810Z,92.50
2022-09-18T00:18:48.995Z,92.50
2022-09-18T00:21:18.722Z,92.40
2022-09-18T00:23:46.226Z,92.40
2022-09-18T00:26:15.410Z,92.60
2022-09-18T00:28:42.791Z,92.30
2022-09-18T00:31:16.214Z,92.20
2022-09-18T00:33:43.583Z,92.20
2022-09-18T00:36:13.211Z,92.10
2022-09-18T00:38:40.649Z,92.00
2022-09-18T00:41:32.723Z,91.90
2022-09-18T00:44:30.994Z,91.80
2022-09-18T00:47:23.590Z,91.70
2022-09-18T00:50:07.427Z,91.70
2022-09-18T00:52:56.827Z,91.70
2022-09-18T00:55:31.041Z,91.80
2022-09-18T00:58:00.399Z,91.80
2022-09-18T01:00:29.429Z,91.70
2022-09-18T01:02:56.693Z,91.70
2022-09-18T01:05:49.110Z,91.70
2022-09-18T01:08:23.737Z,91.80
2022-09-18T01:11:09.647Z,91.80
2022-09-18T01:13:52.586Z,91.80
2022-09-18T01:16:34.174Z,91.60
2022-09-18T01:19:07.016Z,91.40
2022-09-18T01:21:44.353Z,91.30
2022-09-18T01:24:38.859Z,91.10
2022-09-18T01:27:26.859Z,90.90
2022-09-18T01:30:07.834Z,90.70
2022-09-18T01:32:46.456Z,90.50
2022-09-18T01:35:40.621Z,90.30
2022-09-18T01:39:01.432Z,90.10
2022-09-18T01:41:29.962Z,90.00
2022-09-18T01:44:13.879Z,90.00
2022-09-18T01:46:44.473Z,89.80
2022-09-18T01:49:16.051Z,89.50
2022-09-18T01:52:00.641Z,89.20
2022-09-18T01:54:32.658Z,89.00
2022-09-18T01:57:04.836Z,88.90
2022-09-18T01:59:50.821Z,88.70
2022-09-18T02:02:45.069Z,88.60
2022-09-18T02:05:18.743Z,88.70
2022-09-18T02:08:10.913Z,88.80
2022-09-18T02:10:45.143Z,88.90
2022-09-18T02:13:19.858Z,88.80
2022-09-18T02:15:49.377Z,89.90
2022-09-18T02:18:26.208Z,89.80
2022-09-18T02:20:54.819Z,90.00
2022-09-18T02:23:23.436Z,90.10
2022-09-18T02:25:57.786Z,90.20
2022-09-18T02:28:26.981Z,90.30
2022-09-18T02:30:54.785Z,90.20
2022-09-18T02:33:29.696Z,90.10
2022-09-18T02:36:26.224Z,89.90
2022-09-18T02:39:19.267Z,89.80
2022-09-18T02:42:21.305Z,89.80
2022-09-18T02:45:36.961Z,89.60
2022-09-18T02:48:47.969Z,89.80
2022-09-18T02:51:33.066Z,90.00
2022-09-18T02:54:27.022Z,90.60
2022-09-18T02:57:15.299Z,90.40
2022-09-18T02:59:51.125Z,90.50
2022-09-18T03:02:20.858Z,90.70
2022-09-18T03:04:48.214Z,90.70
2022-09-18T03:07:26.369Z,90.50
2022-09-18T03:09:55.316Z,90.40
2022-09-18T03:12:22.243Z,90.50
2022-09-18T03:14:49.440Z,90.60
2022-09-18T03:17:17.217Z,90.60
2022-09-18T03:19:45.860Z,90.60
2022-09-18T03:22:14.265Z,90.50
2022-09-18T03:24:42.403Z,90.50
2022-09-18T03:27:10.604Z,90.50
2022-09-18T03:29:37.890Z,90.50
2022-09-18T03:32:05.241Z,90.90
2022-09-18T03:34:40.681Z,90.80
2022-09-18T03:37:07.659Z,90.90
2022-09-18T03:39:34.998Z,90.90
2022-09-18T03:42:07.156Z,90.90
2022-09-18T03:44:35.621Z,90.90
2022-09-18T03:47:04.935Z,91.00
2022-09-18T03:49:31.909Z,90.90
2022-09-18T03:51:58.926Z,90.80
2022-09-18T03:54:30.320Z,90.80
2022-09-18T03:57:13.241Z,90.80
2022-09-18T03:59:48.966Z,90.60
2022-09-18T04:02:42.856Z,90.50
2022-09-18T04:05:28.577Z,90.30
2022-09-18T04:08:15.749Z,90.30
2022-09-18T04:10:59.942Z,90.20
2022-09-18T04:13:27.701Z,90.10
2022-09-18T04:16:01.576Z,90.00
2022-09-18T04:18:29.338Z,90.00
2022-09-18T04:20:57.691Z,89.90
2022-09-18T04:23:24.767Z,89.90
2022-09-18T04:25:52.189Z,90.00
2022-09-18T04:28:19.973Z,90.10
2022-09-18T04:30:48.411Z,90.20
2022-09-18T04:33:16.342Z,90.30
2022-09-18T04:35:43.544Z,90.30
2022-09-18T04:38:11.142Z,90.40
2022-09-18T04:40:38.171Z,90.50
2022-09-18T04:43:05.633Z,90.50
2022-09-18T04:45:32.815Z,90.60
2022-09-18T04:47:59.836Z,90.80
2022-09-18T04:50:28.682Z,90.90
2022-09-18T04:53:15.563Z,90.90
2022-09-18T04:55:45.164Z,90.90
2022-09-18T04:58:14.428Z,91.00
2022-09-18T05:00:43.469Z,91.10
2022-09-18T05:03:10.676Z,91.10
2022-09-18T05:05:41.344Z,91.00
2022-09-18T05:08:10.417Z,90.80
2022-09-18T05:10:37.337Z,90.70
2022-09-18T05:13:05.104Z,90.60
2022-09-18T05:15:36.113Z,90.70
2022-09-18T05:18:11.343Z,90.70
2022-09-18T05:20:39.196Z,90.70
2022-09-18T05:23:08.045Z,90.50
2022-09-18T05:25:36.961Z,90.50
2022-09-18T05:28:04.366Z,90.30
2022-09-18T05:30:41.709Z,90.30
2022-09-18T05:33:11.069Z,90.50
2022-09-18T05:35:40.328Z,90.50
2022-09-18T05:38:07.348Z,90.40
2022-09-18T05:40:37.426Z,90.40
2022-09-18T05:43:06.001Z,90.40
2022-09-18T05:45:34.493Z,90.50
2022-09-18T05:48:06.639Z,90.50
2022-09-18T05:50:36.597Z,90.50
2022-09-18T05:53:16.397Z,90.50
2022-09-18T05:56:00.238Z,90.40
2022-09-18T05:58:27.293Z,90.30
2022-09-18T06:01:01.300Z,90.30
2022-09-18T06:03:42.091Z,90.20
2022-09-18T06:06:09.076Z,90.10
2022-09-18T06:08:36.454Z,90.00
2022-09-18T06:11:04.034Z,90.10
2022-09-18T06:13:32.336Z,90.20
2022-09-18T06:15:59.917Z,90.20
2022-09-18T06:18:38.479Z,89.60
2022-09-18T06:21:07.011Z,88.40
2022-09-18T06:23:34.347Z,87.20
2022-09-18T06:26:14.957Z,86.50
2022-09-18T06:28:42.981Z,86.20
2022-09-18T06:31:10.854Z,86.20
2022-09-18T06:34:07.031Z,85.90
2022-09-18T06:36:34.125Z,85.50
2022-09-18T06:39:16.124Z,85.20
2022-09-18T06:41:44.979Z,85.30
2022-09-18T06:44:20.795Z,84.20
2022-09-18T06:47:02.628Z,83.50
2022-09-18T06:49:36.973Z,82.60
2022-09-18T06:52:04.471Z,81.50
2022-09-18T06:54:33.386Z,80.90
2022-09-18T06:57:02.188Z,80.20
2022-09-18T06:59:31.292Z,79.40
2022-09-18T07:01:58.397Z,78.80
2022-09-18T07:04:46.848Z,78.10
2022-09-18T07:07:16.499Z,77.20
2022-09-18T07:09:46.451Z,76.40
2022-09-18T07:12:32.256Z,75.60
2022-09-18T07:14:59.219Z,74.80
2022-09-18T07:17:27.808Z,73.80
2022-09-18T07:19:56.899Z,72.10
2022-09-18T07:22:34.317Z,72.40
2022-09-18T07:25:03.660Z,72.90
2022-09-18T07:27:31.046Z,73.70
2022-09-18T07:29:58.872Z,73.40
2022-09-18T07:32:26.653Z,73.70
2022-09-18T07:34:54.156Z,73.60
2022-09-18T07:37:29.558Z,73.30
2022-09-18T07:40:15.318Z,73.10
2022-09-18T07:43:09.366Z,72.50
2022-09-18T07:45:41.398Z,71.80
2022-09-18T07:48:08.463Z,71.30
2022-09-18T07:50:41.488Z,70.70
2022-09-18T07:53:10.508Z,70.20
2022-09-18T07:55:42.933Z,70.00
2022-09-18T07:58:09.932Z,69.10
2022-09-18T08:01:02.869Z,68.20
2022-09-18T08:03:32.359Z,67.40
2022-09-18T08:06:24.848Z,66.40
2022-09-18T08:09:30.598Z,65.00
2022-09-18T08:12:06.186Z,64.50
2022-09-18T08:14:48.152Z,63.70
2022-09-18T08:17:26.051Z,63.40
2022-09-18T08:20:10.426Z,63.30
2022-09-18T08:22:52.611Z,61.00
2022-09-18T08:25:23.418Z,60.70
2022-09-18T08:27:51.369Z,59.40
2022-09-18T08:30:29.756Z,58.10
2022-09-18T08:33:04.839Z,58.00
2022-09-18T08:35:32.183Z,58.00
2022-09-18T08:38:07.619Z,57.60
2022-09-18T08:40:50.575Z,56.40
2022-09-18T08:43:34.781Z,55.50
2022-09-18T08:46:02.168Z,55.00
2022-09-18T08:48:37.461Z,53.40
2022-09-18T08:51:14.764Z,52.20
2022-09-18T08:53:49.622Z,52.90
2022-09-18T08:56:39.336Z,53.30
2022-09-18T08:59:38.676Z,52.10
2022-09-18T09:02:37.983Z,51.60
2022-09-18T09:05:16.119Z,52.70
2022-09-18T09:07:52.139Z,52.20
2022-09-18T09:10:59.316Z,52.60
2022-09-18T09:13:41.711Z,51.20
2022-09-18T09:16:17.007Z,50.70
2022-09-18T09:18:55.389Z,50.10
2022-09-18T09:21:24.885Z,48.90
2022-09-18T09:24:04.521Z,48.20
2022-09-18T09:26:52.009Z,48.20
2022-09-18T09:29:42.119Z,47.90
2022-09-18T09:32:33.296Z,48.10
2022-09-18T09:35:30.400Z,46.90
2022-09-18T09:38:23.352Z,47.10
2022-09-18T09:40:53.514Z,47.00
2022-09-18T09:43:30.249Z,46.90
2022-09-18T09:46:03.084Z,46.80
2022-09-18T09:48:50.751Z,46.60
2022-09-18T09:51:28.099Z,46.40
2022-09-18T09:53:56.069Z,45.80
2022-09-18T09:56:51.509Z,44.90
2022-09-18T09:59:51.096Z,44.70
2022-09-18T10:02:44.697Z,45.60
2022-09-18T10:05:35.191Z,44.60
2022-09-18T10:08:28.678Z,45.80
2022-09-18T10:11:01.422Z,45.30
2022-09-18T10:13:53.602Z,43.40
2022-09-18T10:16:25.999Z,43.20
2022-09-18T10:18:54.453Z,43.40
2022-09-18T10:21:27.699Z,42.70
2022-09-18T10:24:01.035Z,43.20
2022-09-18T10:26:36.341Z,43.10
2022-09-18T10:29:03.404Z,42.80
2022-09-18T10:31:56.454Z,43.70
2022-09-18T10:34:31.541Z,43.80
2022-09-18T10:36:58.928Z,43.50
2022-09-18T10:39:31.735Z,43.50
2022-09-18T10:42:16.451Z,42.10
2022-09-18T10:45:01.430Z,41.90
2022-09-18T10:47:38.053Z,41.80
2022-09-18T10:50:16.944Z,41.90
2022-09-18T10:52:49.603Z,41.80
2022-09-18T10:55:29.319Z,41.40
2022-09-18T10:58:02.352Z,42.50
2022-09-18T11:00:30.064Z,42.70
2022-09-18T11:03:35.024Z,42.70
2022-09-18T11:06:04.812Z,41.50
2022-09-18T11:08:37.089Z,42.30
2022-09-18T11:11:07.376Z,42.00
2022-09-18T11:14:04.422Z,42.30
2022-09-18T11:16:52.571Z,41.90
2022-09-18T11:19:34.796Z,42.40
2022-09-18T11:22:34.218Z,39.70
2022-09-18T11:25:24.721Z,41.50
2022-09-18T11:27:56.492Z,42.30
2022-09-18T11:30:36.068Z,41.90
2022-09-18T11:33:15.995Z,42.00
2022-09-18T11:35:49.019Z,41.20
2022-09-18T11:38:19.608Z,40.10
2022-09-18T11:40:51.822Z,38.30
2022-09-18T11:43:28.438Z,39.90
2022-09-18T11:46:35.853Z,41.50
2022-09-18T11:49:17.574Z,40.80
2022-09-18T11:52:14.275Z,38.20
2022-09-18T11:55:00.355Z,39.00
2022-09-18T11:57:40.285Z,40.00
2022-09-18T12:00:16.095Z,39.80
2022-09-18T12:02:54.415Z,40.40
2022-09-18T12:05:51.451Z,40.80
2022-09-18T12:08:33.981Z,40.30
2022-09-18T12:11:33.353Z,39.50
2022-09-18T12:14:29.287Z,40.70
2022-09-18T12:17:21.554Z,41.10
2022-09-18T12:19:55.393Z,42.50
2022-09-18T12:22:31.955Z,43.20
2022-09-18T12:25:01.107Z,42.90
2022-09-18T12:28:03.619Z,42.30
2022-09-18T12:30:53.902Z,42.40
2022-09-18T12:33:46.032Z,42.60
2022-09-18T12:36:55.564Z,42.50
2022-09-18T12:40:04.481Z,41.70
2022-09-18T12:42:50.177Z,42.40
2022-09-18T12:45:38.717Z,43.10
2022-09-18T12:48:14.278Z,40.30
2022-09-18T12:51:07.120Z,38.60
2022-09-18T12:53:56.580Z,40.20
2022-09-18T12:56:23.601Z,40.50
2022-09-18T12:58:53.258Z,41.00
2022-09-18T13:01:40.299Z,41.00
2022-09-18T13:04:35.713Z,39.20
2022-09-18T13:07:05.119Z,39.70
2022-09-18T13:09:55.781Z,39.30
2022-09-18T13:12:31.132Z,39.60
2022-09-18T13:15:14.725Z,39.30
2022-09-18T13:17:49.132Z,36.60
2022-09-18T13:20:31.531Z,35.60
2022-09-18T13:23:00.871Z,36.90
2022-09-18T13:25:34.084Z,37.60
2022-09-18T13:28:04.992Z,38.20
2022-09-18T13:30:32.301Z,38.20
2022-09-18T13:33:00.399Z,38.50
2022-09-18T13:35:37.408Z,39.10
2022-09-18T13:38:18.667Z,39.70
2022-09-18T13:40:49.279Z,38.70
2022-09-18T13:43:28.141Z,37.40
2022-09-18T13:45:56.562Z,37.00
2022-09-18T13:48:38.521Z,37.40
2022-09-18T13:51:09.408Z,36.30
2022-09-18T13:53:36.292Z,36.80
2022-09-18T13:56:14.042Z,37.30
2022-09-18T13:58:55.795Z,36.70
2022-09-18T14:01:41.251Z,36.80
2022-09-18T14:04:40.275Z,36.30
2022-09-18T14:07:19.695Z,34.70
2022-09-18T14:10:04.582Z,36.70
2022-09-18T14:12:36.144Z,37.90
2022-09-18T14:15:17.316Z,38.00
2022-09-18T14:18:15.296Z,38.00
2022-09-18T14:20:50.508Z,38.20
2022-09-18T14:23:35.668Z,37.30
2022-09-18T14:26:28.016Z,34.80
2022-09-18T14:29:11.137Z,36.40
2022-09-18T14:31:45.856Z,37.40
2022-09-18T14:34:15.835Z,37.40
2022-09-18T14:36:50.216Z,37.40
2022-09-18T14:39:29.426Z,37.60
2022-09-18T14:42:24.863Z,36.30
2022-09-18T14:45:08.645Z,36.10
2022-09-18T14:47:35.948Z,35.90
2022-09-18T14:50:20.894Z,37.50
2022-09-18T14:52:47.919Z,37.90
2022-09-18T14:55:22.743Z,38.10
2022-09-18T14:57:56.106Z,38.30
2022-09-18T15:00:30.131Z,38.00
2022-09-18T15:03:00.518Z,36.70
2022-09-18T15:05:28.552Z,37.30
2022-09-18T15:08:01.128Z,36.40
2022-09-18T15:10:38.707Z,35.80
2022-09-18T15:13:08.407Z,35.80
2022-09-18T15:15:39.462Z,36.50
2022-09-18T15:18:28.735Z,36.80
2022-09-18T15:20:58.199Z,37.40
2022-09-18T15:23:30.759Z,37.60
2022-09-18T15:26:03.092Z,35.40
2022-09-18T15:28:33.724Z,36.10
2022-09-18T15:31:04.814Z,37.20
2022-09-18T15:33:33.700Z,37.30
2022-09-18T15:36:02.542Z,37.90
2022-09-18T15:38:41.554Z,38.80
2022-09-18T15:41:42.444Z,38.60
2022-09-18T15:44:33.928Z,39.40
2022-09-18T15:47:31.005Z,38.80
2022-09-18T15:49:59.790Z,36.20
2022-09-18T15:52:40.586Z,36.40
2022-09-18T15:55:10.397Z,36.00
2022-09-18T15:57:38.684Z,36.80
2022-09-18T16:00:11.916Z,37.70
2022-09-18T16:02:39.428Z,38.00
2022-09-18T16:05:12.444Z,39.30
2022-09-18T16:07:47.593Z,40.40
2022-09-18T16:10:39.749Z,39.80
2022-09-18T16:13:15.847Z,39.40
2022-09-18T16:15:47.787Z,40.10
2022-09-18T16:18:29.118Z,40.60
2022-09-18T16:20:57.717Z,41.10
2022-09-18T16:23:36.192Z,41.70
2022-09-18T16:26:19.913Z,41.80
2022-09-18T16:28:53.719Z,41.60
2022-09-18T16:31:22.740Z,41.50
2022-09-18T16:33:51.690Z,42.00
2022-09-18T16:36:27.526Z,43.60
2022-09-18T16:38:55.409Z,44.50
2022-09-18T16:41:22.628Z,45.70
2022-09-18T16:43:51.348Z,46.30
2022-09-18T16:46:20.707Z,46.30
2022-09-18T16:48:48.011Z,45.90
2022-09-18T16:51:15.024Z,46.30
2022-09-18T16:53:42.006Z,46.80
2022-09-18T16:56:12.551Z,47.00
2022-09-18T16:58:41.268Z,47.60
2022-09-18T17:01:08.443Z,48.00
2022-09-18T17:03:35.533Z,48.90
2022-09-18T17:06:02.695Z,49.10
2022-09-18T17:08:30.457Z,49.70
2022-09-18T17:10:57.899Z,51.40
2022-09-18T17:13:24.917Z,52.60
2022-09-18T17:15:52.090Z,53.60
2022-09-18T17:18:19.110Z,54.40
2022-09-18T17:20:46.093Z,54.70
2022-09-18T17:23:13.344Z,55.30
2022-09-18T17:25:40.597Z,55.90
2022-09-18T17:28:08.043Z,55.90
2022-09-18T17:30:35.019Z,56.00
2022-09-18T17:33:02.757Z,56.60
2022-09-18T17:35:29.776Z,57.70
2022-09-18T17:37:56.753Z,58.60
2022-09-18T17:40:23.734Z,60.00
2022-09-18T17:42:50.798Z,60.80
2022-09-18T17:45:17.860Z,61.30
2022-09-18T17:47:44.853Z,62.10
2022-09-18T17:50:12.308Z,62.60
2022-09-18T17:52:39.278Z,62.60
2022-09-18T17:55:06.975Z,61.10
2022-09-18T17:57:35.429Z,60.80
2022-09-18T18:00:04.348Z,60.70
2022-09-18T18:02:39.483Z,60.60
2022-09-18T18:05:06.701Z,61.10
2022-09-18T18:07:33.734Z,62.60
2022-09-18T18:10:00.646Z,63.50
2022-09-18T18:12:27.658Z,63.70
2022-09-18T18:14:54.601Z,64.70
2022-09-18T18:17:21.549Z,65.40
2022-09-18T18:19:50.032Z,65.70
2022-09-18T18:22:18.021Z,66.90
2022-09-18T18:24:45.153Z,67.60
2022-09-18T18:27:12.131Z,68.30
2022-09-18T18:29:39.833Z,68.40
2022-09-18T18:32:06.983Z,68.00
2022-09-18T18:34:33.936Z,67.80
2022-09-18T18:37:01.782Z,68.80
2022-09-18T18:39:28.777Z,69.00
2022-09-18T18:41:55.799Z,69.30
2022-09-18T18:44:23.284Z,69.00
2022-09-18T18:46:51.127Z,68.90
2022-09-18T18:49:18.178Z,68.50
2022-09-18T18:51:47.936Z,67.50
2022-09-18T18:54:21.714Z,66.50
2022-09-18T18:56:49.693Z,65.70
2022-09-18T18:59:18.998Z,65.80
2022-09-18T19:01:47.348Z,65.40
2022-09-18T19:04:17.057Z,65.50
2022-09-18T19:06:45.208Z,65.50
2022-09-18T19:09:20.431Z,65.20
2022-09-18T19:11:49.339Z,65.20
2022-09-18T19:14:21.650Z,64.80
2022-09-18T19:16:50.970Z,64.80
2022-09-18T19:19:19.803Z,65.10
2022-09-18T19:21:47.833Z,65.80
2022-09-18T19:24:15.881Z,66.10
2022-09-18T19:26:43.337Z,66.60
2022-09-18T19:29:15.698Z,67.70
2022-09-18T19:31:44.215Z,67.50
2022-09-18T19:34:13.395Z,67.90
2022-09-18T19:36:41.080Z,67.80
2022-09-18T19:39:11.221Z,67.90
2022-09-18T19:41:52.085Z,68.40
2022-09-18T19:44:36.974Z,68.90
2022-09-18T19:47:07.447Z,68.20
2022-09-18T19:49:38.144Z,67.70
2022-09-18T19:52:18.255Z,67.00
2022-09-18T19:54:50.897Z,67.20
2022-09-18T19:57:18.983Z,67.50
2022-09-18T19:59:47.018Z,68.40
2022-09-18T20:02:19.236Z,69.00
2022-09-18T20:04:46.375Z,69.40
2022-09-18T20:07:13.755Z,69.50
2022-09-18T20:09:40.918Z,69.40
2022-09-18T20:12:09.143Z,69.40
2022-09-18T20:14:36.091Z,69.30
2022-09-18T20:17:03.066Z,69.60
2022-09-18T20:19:29.979Z,69.00
2022-09-18T20:21:56.951Z,68.40
2022-09-18T20:24:23.975Z,67.80
2022-09-18T20:26:51.492Z,67.30
2022-09-18T20:29:18.484Z,67.00
2022-09-18T20:31:46.183Z,66.90
2022-09-18T20:34:13.858Z,66.80
2022-09-18T20:36:40.925Z,67.40
2022-09-18T20:39:08.737Z,66.90
2022-09-18T20:41:35.779Z,67.00
2022-09-18T20:44:05.682Z,66.20
2022-09-18T20:46:37.142Z,65.80
2022-09-18T20:49:05.208Z,64.70
2022-09-18T20:51:37.035Z,64.10
2022-09-18T20:54:08.206Z,63.80
2022-09-18T20:56:41.319Z,63.30
2022-09-18T20:59:10.710Z,63.70
2022-09-18T21:01:38.205Z,64.30
2022-09-18T21:04:05.336Z,64.90
2022-09-18T21:06:33.493Z,66.20
2022-09-18T21:09:05.505Z,67.30
2022-09-18T21:11:36.811Z,67.60
2022-09-18T21:14:05.415Z,67.30
2022-09-18T21:16:36.074Z,66.80
2022-09-18T21:19:04.914Z,67.30
2022-09-18T21:21:36.811Z,68.20
2022-09-18T21:24:05.322Z,68.70
2022-09-18T21:26:38.566Z,68.90
2022-09-18T21:29:05.622Z,69.40
2022-09-18T21:31:38.528Z,69.70
2022-09-18T21:34:05.712Z,69.80
2022-09-18T21:36:34.813Z,69.70
2022-09-18T21:39:01.837Z,70.40
2022-09-18T21:41:28.785Z,70.70
2022-09-18T21:43:56.440Z,70.80
2022-09-18T21:46:23.953Z,71.20
2022-09-18T21:48:54.421Z,71.70
2022-09-18T21:51:21.874Z,71.80
2022-09-18T21:53:48.904Z,72.10
2022-09-18T21:56:18.660Z,72.70
2022-09-18T21:58:47.753Z,73.40
2022-09-18T22:01:16.171Z,73.70
2022-09-18T22:03:50.610Z,73.90
2022-09-18T22:06:19.498Z,74.10
2022-09-18T22:08:50.367Z,74.50
2022-09-18T22:11:19.036Z,74.70
2022-09-18T22:13:47.297Z,75.10
2022-09-18T22:16:14.402Z,75.10
2022-09-18T22:18:42.105Z,74.90
2022-09-18T22:21:27.611Z,74.90
2022-09-18T22:23:57.340Z,74.90
2022-09-18T22:26:27.171Z,74.70
2022-09-18T22:28:56.762Z,74.70
2022-09-18T22:31:24.913Z,74.40
2022-09-18T22:33:57.717Z,74.40
2022-09-18T22:36:25.829Z,74.20
2022-09-18T22:38:54.197Z,74.30
2022-09-18T22:41:21.759Z,74.30
2022-09-18T22:43:54.680Z,74.00
2022-09-18T22:46:23.325Z,73.70
2022-09-18T22:48:50.415Z,73.50
2022-09-18T22:51:19.999Z,73.20
2022-09-18T22:53:56.158Z,73.20
2022-09-18T22:56:28.054Z,73.20
2022-09-18T22:58:56.332Z,73.10
2022-09-18T23:01:37.389Z,72.60
2022-09-18T23:04:05.423Z,72.00
2022-09-18T23:06:33.748Z,71.80
2022-09-18T23:09:03.296Z,71.60
2022-09-18T23:11:32.481Z,71.80
2022-09-18T23:14:07.638Z,72.00
2022-09-18T23:16:36.222Z,72.00
2022-09-18T23:19:06.470Z,71.80
2022-09-18T23:21:34.890Z,71.70
2022-09-18T23:24:08.709Z,71.70
2022-09-18T23:26:41.722Z,71.70
2022-09-18T23:29:12.745Z,71.60
2022-09-18T23:31:42.865Z,71.90
2022-09-18T23:34:19.080Z,72.30
2022-09-18T23:36:49.309Z,72.80
2022-09-18T23:39:25.259Z,73.00
2022-09-18T23:41:52.722Z,73.00
2022-09-18T23:44:21.423Z,72.60
2022-09-18T23:46:48.816Z,72.70
2022-09-18T23:49:17.047Z,72.90
2022-09-18T23:51:46.450Z,73.10
2022-09-18T23:54:19.787Z,73.50
2022-09-18T23:56:47.242Z,73.30
2022-09-18T23:59:15.969Z,73.20
